sensor_id;sensor_type;location;lat;lon;timestamp;temperature;humidity
8231;DHT22;4156;50.908;6.974;2022-09-29T00:00:08;12.20;99.90
8231;DHT22;4156;50.908;6.974;2022-09-29T00:02:34;12.20;99.90
8231;DHT22;4156;50.908;6.974;2022-09-29T00:04:59;12.20;99.90
8231;DHT22;4156;50.908;6.974;2022-09-29T00:07:25;12.20;99.90
8231;DHT22;4156;50.908;6.974;2022-09-29T00:09:50;12.20;99.90
8231;DHT22;4156;50.908;6.974;2022-09-29T00:12:16;12.20;99.90
8231;DHT22;4156;50.908;6.974;2022-09-29T00:14:41;12.20;99.90
8231;DHT22;4156;50.908;6.974;2022-09-29T00:17:07;12.20;99.90
8231;DHT22;4156;50.908;6.974;2022-09-29T00:19:32;12.10;99.90
8231;DHT22;4156;50.908;6.974;2022-09-29T00:21:58;12.10;99.90
8231;DHT22;4156;50.908;6.974;2022-09-29T00:24:24;12.10;99.90
8231;DHT22;4156;50.908;6.974;2022-09-29T00:26:50;12.10;99.90
8231;DHT22;4156;50.908;6.974;2022-09-29T00:29:16;12.10;99.90
8231;DHT22;4156;50.908;6.974;2022-09-29T00:31:41;12.10;99.90
8231;DHT22;4156;50.908;6.974;2022-09-29T00:34:07;12.10;99.90
8231;DHT22;4156;50.908;6.974;2022-09-29T00:36:32;12.00;99.90
8231;DHT22;4156;50.908;6.974;2022-09-29T00:38:58;12.00;99.90
8231;DHT22;4156;50.908;6.974;2022-09-29T00:41:27;12.00;99.90
8231;DHT22;4156;50.908;6.974;2022-09-29T00:52:10;11.90;99.90
8231;DHT22;4156;50.908;6.974;2022-09-29T00:54:41;11.90;99.90
8231;DHT22;4156;50.908;6.974;2022-09-29T00:57:08;11.90;99.90
8231;DHT22;4156;50.908;6.974;2022-09-29T01:00:00;11.90;99.90
8231;DHT22;4156;50.908;6.974;2022-09-29T01:02:27;11.80;99.90
8231;DHT22;4156;50.908;6.974;2022-09-29T01:04:54;11.80;99.90
8231;DHT22;4156;50.908;6.974;2022-09-29T01:07:24;11.80;99.90
8231;DHT22;4156;50.908;6.974;2022-09-29T01:09:53;11.80;99.90
8231;DHT22;4156;50.908;6.974;2022-09-29T01:12:21;11.80;99.90
8231;DHT22;4156;50.908;6.974;2022-09-29T01:14:47;11.70;99.90
8231;DHT22;4156;50.908;6.974;2022-09-29T01:17:13;11.70;99.90
8231;DHT22;4156;50.908;6.974;2022-09-29T01:34:17;11.50;99.90
8231;DHT22;4156;50.908;6.974;2022-09-29T01:39:54;11.50;99.90
8231;DHT22;4156;50.908;6.974;2022-09-29T01:42:28;11.40;99.90
8231;DHT22;4156;50.908;6.974;2022-09-29T01:44:59;11.40;99.90
8231;DHT22;4156;50.908;6.974;2022-09-29T01:47:39;11.40;99.90
8231;DHT22;4156;50.908;6.974;2022-09-29T01:50:14;11.40;99.90
8231;DHT22;4156;50.908;6.974;2022-09-29T01:52:44;11.40;99.90
8231;DHT22;4156;50.908;6.974;2022-09-29T01:55:15;11.30;99.90
8231;DHT22;4156;50.908;6.974;2022-09-29T01:57:50;11.30;99.90
8231;DHT22;4156;50.908;6.974;2022-09-29T02:00:18;11.30;99.90
8231;DHT22;4156;50.908;6.974;2022-09-29T02:05:44;11.30;99.90
8231;DHT22;4156;50.908;6.974;2022-09-29T02:08:19;11.30;99.90
8231;DHT22;4156;50.908;6.974;2022-09-29T02:11:04;11.30;99.90
8231;DHT22;4156;50.908;6.974;2022-09-29T02:13:33;11.30;99.90
8231;DHT22;4156;50.908;6.974;2022-09-29T02:16:02;11.30;99.90
8231;DHT22;4156;50.908;6.974;2022-09-29T02:18:33;11.20;99.90
8231;DHT22;4156;50.908;6.974;2022-09-29T02:20:59;11.20;99.90
8231;DHT22;4156;50.908;6.974;2022-09-29T02:23:25;11.20;99.90
8231;DHT22;4156;50.908;6.974;2022-09-29T02:25:51;11.20;99.90
8231;DHT22;4156;50.908;6.974;2022-09-29T02:28:18;11.20;99.90
8231;DHT22;4156;50.908;6.974;2022-09-29T02:30:44;11.10;99.90
8231;DHT22;4156;50.908;6.974;2022-09-29T02:33:20;11.10;99.90
8231;DHT22;4156;50.908;6.974;2022-09-29T02:38:59;11.10;99.90
8231;DHT22;4156;50.908;6.974;2022-09-29T02:41:49;11.00;99.90
8231;DHT22;4156;50.908;6.974;2022-09-29T02:55:42;10.90;99.90
8231;DHT22;4156;50.908;6.974;2022-09-29T02:58:34;10.90;99.90
8231;DHT22;4156;50.908;6.974;2022-09-29T03:01:03;10.90;99.90
8231;DHT22;4156;50.908;6.974;2022-09-29T03:03:30;10.90;99.90
8231;DHT22;4156;50.908;6.974;2022-09-29T03:05:56;10.80;99.90
8231;DHT22;4156;50.908;6.974;2022-09-29T03:08:21;10.80;99.90
8231;DHT22;4156;50.908;6.974;2022-09-29T03:10:47;10.80;99.90
8231;DHT22;4156;50.908;6.974;2022-09-29T03:13:13;10.70;99.90
8231;DHT22;4156;50.908;6.974;2022-09-29T03:15:39;10.70;99.90
8231;DHT22;4156;50.908;6.974;2022-09-29T03:18:05;10.70;99.90
8231;DHT22;4156;50.908;6.974;2022-09-29T03:20:31;10.70;99.90
8231;DHT22;4156;50.908;6.974;2022-09-29T03:22:57;10.70;99.90
8231;DHT22;4156;50.908;6.974;2022-09-29T03:25:23;10.70;99.90
8231;DHT22;4156;50.908;6.974;2022-09-29T03:27:49;10.70;99.90
8231;DHT22;4156;50.908;6.974;2022-09-29T03:30:16;10.60;99.90
8231;DHT22;4156;50.908;6.974;2022-09-29T03:32:42;10.60;99.90
8231;DHT22;4156;50.908;6.974;2022-09-29T03:35:09;10.60;99.90
8231;DHT22;4156;50.908;6.974;2022-09-29T03:37:34;10.60;99.90
8231;DHT22;4156;50.908;6.974;2022-09-29T03:40:00;10.60;99.90
8231;DHT22;4156;50.908;6.974;2022-09-29T03:42:26;10.60;99.90
8231;DHT22;4156;50.908;6.974;2022-09-29T03:44:53;10.50;99.90
8231;DHT22;4156;50.908;6.974;2022-09-29T03:47:18;10.50;99.90
8231;DHT22;4156;50.908;6.974;2022-09-29T03:49:44;10.50;99.90
8231;DHT22;4156;50.908;6.974;2022-09-29T03:52:09;10.50;99.90
8231;DHT22;4156;50.908;6.974;2022-09-29T03:54:35;10.50;99.90
8231;DHT22;4156;50.908;6.974;2022-09-29T03:57:00;10.50;99.90
8231;DHT22;4156;50.908;6.974;2022-09-29T03:59:26;10.40;99.90
8231;DHT22;4156;50.908;6.974;2022-09-29T04:01:51;10.40;99.90
8231;DHT22;4156;50.908;6.974;2022-09-29T04:04:17;10.40;99.90
8231;DHT22;4156;50.908;6.974;2022-09-29T04:06:42;10.30;99.90
8231;DHT22;4156;50.908;6.974;2022-09-29T04:09:08;10.30;99.90
8231;DHT22;4156;50.908;6.974;2022-09-29T04:11:34;10.30;99.90
8231;DHT22;4156;50.908;6.974;2022-09-29T04:13:59;10.30;99.90
8231;DHT22;4156;50.908;6.974;2022-09-29T04:16:25;10.20;99.90
8231;DHT22;4156;50.908;6.974;2022-09-29T04:18:50;10.20;99.90
8231;DHT22;4156;50.908;6.974;2022-09-29T04:21:16;10.20;99.90
8231;DHT22;4156;50.908;6.974;2022-09-29T04:23:41;10.20;99.90
8231;DHT22;4156;50.908;6.974;2022-09-29T04:26:07;10.20;99.90
8231;DHT22;4156;50.908;6.974;2022-09-29T04:28:34;10.20;99.90
8231;DHT22;4156;50.908;6.974;2022-09-29T04:31:00;10.10;99.90
8231;DHT22;4156;50.908;6.974;2022-09-29T04:33:26;10.10;99.90
8231;DHT22;4156;50.908;6.974;2022-09-29T04:35:54;10.10;99.90
8231;DHT22;4156;50.908;6.974;2022-09-29T04:38:20;10.10;99.90
8231;DHT22;4156;50.908;6.974;2022-09-29T04:40:46;10.00;99.90
8231;DHT22;4156;50.908;6.974;2022-09-29T04:43:12;10.00;99.90
8231;DHT22;4156;50.908;6.974;2022-09-29T04:45:38;10.00;99.90
8231;DHT22;4156;50.908;6.974;2022-09-29T04:48:03;9.90;99.90
8231;DHT22;4156;50.908;6.974;2022-09-29T04:50:29;9.90;99.90
8231;DHT22;4156;50.908;6.974;2022-09-29T04:52:55;9.80;99.90
8231;DHT22;4156;50.908;6.974;2022-09-29T04:55:20;9.80;99.90
8231;DHT22;4156;50.908;6.974;2022-09-29T04:57:46;9.80;99.90
8231;DHT22;4156;50.908;6.974;2022-09-29T05:00:13;9.70;99.90
8231;DHT22;4156;50.908;6.974;2022-09-29T05:02:39;9.70;99.90
8231;DHT22;4156;50.908;6.974;2022-09-29T05:05:07;9.70;99.90
8231;DHT22;4156;50.908;6.974;2022-09-29T05:07:37;9.70;99.90
8231;DHT22;4156;50.908;6.974;2022-09-29T05:10:04;9.70;99.90
8231;DHT22;4156;50.908;6.974;2022-09-29T05:12:30;9.70;99.90
8231;DHT22;4156;50.908;6.974;2022-09-29T05:14:56;9.70;99.90
8231;DHT22;4156;50.908;6.974;2022-09-29T05:17:21;9.70;99.90
8231;DHT22;4156;50.908;6.974;2022-09-29T05:19:47;9.60;99.90
8231;DHT22;4156;50.908;6.974;2022-09-29T05:22:12;9.60;99.90
8231;DHT22;4156;50.908;6.974;2022-09-29T05:24:38;9.60;99.90
8231;DHT22;4156;50.908;6.974;2022-09-29T05:27:03;9.50;99.90
8231;DHT22;4156;50.908;6.974;2022-09-29T05:29:29;9.50;99.90
8231;DHT22;4156;50.908;6.974;2022-09-29T05:31:54;9.50;99.90
8231;DHT22;4156;50.908;6.974;2022-09-29T05:34:20;9.50;99.90
8231;DHT22;4156;50.908;6.974;2022-09-29T05:36:46;9.50;99.90
8231;DHT22;4156;50.908;6.974;2022-09-29T05:39:11;9.40;99.90
8231;DHT22;4156;50.908;6.974;2022-09-29T05:41:37;9.40;99.90
8231;DHT22;4156;50.908;6.974;2022-09-29T05:44:03;9.40;99.90
8231;DHT22;4156;50.908;6.974;2022-09-29T05:46:29;9.40;99.90
8231;DHT22;4156;50.908;6.974;2022-09-29T05:48:55;9.40;99.90
8231;DHT22;4156;50.908;6.974;2022-09-29T05:51:23;9.40;99.90
8231;DHT22;4156;50.908;6.974;2022-09-29T05:53:49;9.40;99.90
8231;DHT22;4156;50.908;6.974;2022-09-29T05:56:19;9.40;99.90
8231;DHT22;4156;50.908;6.974;2022-09-29T05:58:44;9.40;99.90
8231;DHT22;4156;50.908;6.974;2022-09-29T06:01:15;9.30;99.90
8231;DHT22;4156;50.908;6.974;2022-09-29T06:03:41;9.30;99.90
8231;DHT22;4156;50.908;6.974;2022-09-29T06:06:09;9.30;99.90
8231;DHT22;4156;50.908;6.974;2022-09-29T06:08:35;9.30;99.90
8231;DHT22;4156;50.908;6.974;2022-09-29T06:11:16;9.30;99.90
8231;DHT22;4156;50.908;6.974;2022-09-29T06:13:44;9.20;99.90
8231;DHT22;4156;50.908;6.974;2022-09-29T06:16:10;9.30;99.90
8231;DHT22;4156;50.908;6.974;2022-09-29T06:18:36;9.30;99.90
8231;DHT22;4156;50.908;6.974;2022-09-29T06:21:08;9.30;99.90
8231;DHT22;4156;50.908;6.974;2022-09-29T06:23:34;9.30;99.90
8231;DHT22;4156;50.908;6.974;2022-09-29T06:26:02;9.30;99.90
8231;DHT22;4156;50.908;6.974;2022-09-29T06:28:29;9.30;99.90
8231;DHT22;4156;50.908;6.974;2022-09-29T06:30:59;9.30;99.90
8231;DHT22;4156;50.908;6.974;2022-09-29T06:33:26;9.20;99.90
8231;DHT22;4156;50.908;6.974;2022-09-29T06:35:52;9.20;99.90
8231;DHT22;4156;50.908;6.974;2022-09-29T06:38:36;9.20;99.90
8231;DHT22;4156;50.908;6.974;2022-09-29T06:41:02;9.20;99.90
8231;DHT22;4156;50.908;6.974;2022-09-29T06:43:27;9.20;99.90
8231;DHT22;4156;50.908;6.974;2022-09-29T06:45:53;9.20;99.90
8231;DHT22;4156;50.908;6.974;2022-09-29T06:48:18;9.20;99.90
8231;DHT22;4156;50.908;6.974;2022-09-29T06:50:44;9.10;99.90
8231;DHT22;4156;50.908;6.974;2022-09-29T06:53:10;9.10;99.90
8231;DHT22;4156;50.908;6.974;2022-09-29T06:55:35;9.10;99.90
8231;DHT22;4156;50.908;6.974;2022-09-29T06:58:00;9.10;99.90
8231;DHT22;4156;50.908;6.974;2022-09-29T07:00:26;9.10;99.90
8231;DHT22;4156;50.908;6.974;2022-09-29T07:02:52;9.10;99.90
8231;DHT22;4156;50.908;6.974;2022-09-29T07:05:18;9.10;99.90
8231;DHT22;4156;50.908;6.974;2022-09-29T07:07:47;9.10;99.90
8231;DHT22;4156;50.908;6.974;2022-09-29T07:10:12;9.10;99.90
8231;DHT22;4156;50.908;6.974;2022-09-29T07:12:38;9.40;99.90
8231;DHT22;4156;50.908;6.974;2022-09-29T07:15:03;9.10;99.90
8231;DHT22;4156;50.908;6.974;2022-09-29T07:17:29;9.10;99.90
8231;DHT22;4156;50.908;6.974;2022-09-29T07:19:54;9.10;99.90
8231;DHT22;4156;50.908;6.974;2022-09-29T07:22:21;9.20;99.90
8231;DHT22;4156;50.908;6.974;2022-09-29T07:24:46;9.20;99.90
8231;DHT22;4156;50.908;6.974;2022-09-29T07:27:13;9.20;99.90
8231;DHT22;4156;50.908;6.974;2022-09-29T07:29:38;9.20;99.90
8231;DHT22;4156;50.908;6.974;2022-09-29T07:32:04;9.20;99.90
8231;DHT22;4156;50.908;6.974;2022-09-29T07:34:29;9.20;99.90
8231;DHT22;4156;50.908;6.974;2022-09-29T07:36:55;9.20;99.90
8231;DHT22;4156;50.908;6.974;2022-09-29T07:39:20;9.20;99.90
8231;DHT22;4156;50.908;6.974;2022-09-29T07:41:47;9.30;99.90
8231;DHT22;4156;50.908;6.974;2022-09-29T07:44:12;9.30;99.90
8231;DHT22;4156;50.908;6.974;2022-09-29T07:46:38;9.30;99.90
8231;DHT22;4156;50.908;6.974;2022-09-29T07:49:03;9.30;99.90
8231;DHT22;4156;50.908;6.974;2022-09-29T07:51:29;9.30;99.90
8231;DHT22;4156;50.908;6.974;2022-09-29T07:53:55;9.30;99.90
8231;DHT22;4156;50.908;6.974;2022-09-29T07:56:25;9.20;99.90
8231;DHT22;4156;50.908;6.974;2022-09-29T07:58:50;9.20;99.90
8231;DHT22;4156;50.908;6.974;2022-09-29T08:01:17;9.30;99.90
8231;DHT22;4156;50.908;6.974;2022-09-29T08:03:48;9.30;99.90
8231;DHT22;4156;50.908;6.974;2022-09-29T08:06:14;9.30;99.90
8231;DHT22;4156;50.908;6.974;2022-09-29T08:08:41;9.30;99.90
8231;DHT22;4156;50.908;6.974;2022-09-29T08:11:11;9.30;99.90
8231;DHT22;4156;50.908;6.974;2022-09-29T08:13:38;9.30;99.90
8231;DHT22;4156;50.908;6.974;2022-09-29T08:16:06;9.30;99.90
8231;DHT22;4156;50.908;6.974;2022-09-29T08:18:33;9.30;99.90
8231;DHT22;4156;50.908;6.974;2022-09-29T08:21:00;9.30;99.90
8231;DHT22;4156;50.908;6.974;2022-09-29T08:23:26;9.40;99.90
8231;DHT22;4156;50.908;6.974;2022-09-29T08:25:59;9.40;99.90
8231;DHT22;4156;50.908;6.974;2022-09-29T08:28:25;9.40;99.90
8231;DHT22;4156;50.908;6.974;2022-09-29T08:30:50;9.40;99.90
8231;DHT22;4156;50.908;6.974;2022-09-29T08:33:16;9.40;99.90
8231;DHT22;4156;50.908;6.974;2022-09-29T08:35:41;9.40;99.90
8231;DHT22;4156;50.908;6.974;2022-09-29T08:38:07;9.40;99.90
8231;DHT22;4156;50.908;6.974;2022-09-29T08:40:33;9.50;99.90
8231;DHT22;4156;50.908;6.974;2022-09-29T08:45:48;9.50;99.90
8231;DHT22;4156;50.908;6.974;2022-09-29T08:48:23;9.50;99.90
8231;DHT22;4156;50.908;6.974;2022-09-29T08:50:57;9.50;99.90
8231;DHT22;4156;50.908;6.974;2022-09-29T08:53:25;9.50;99.90
8231;DHT22;4156;50.908;6.974;2022-09-29T08:56:05;9.50;99.90
8231;DHT22;4156;50.908;6.974;2022-09-29T08:58:31;9.50;99.90
8231;DHT22;4156;50.908;6.974;2022-09-29T09:09:54;9.60;99.90
8231;DHT22;4156;50.908;6.974;2022-09-29T09:17:58;9.70;99.90
8231;DHT22;4156;50.908;6.974;2022-09-29T09:20:40;9.70;99.90
8231;DHT22;4156;50.908;6.974;2022-09-29T09:23:22;9.80;99.90
8231;DHT22;4156;50.908;6.974;2022-09-29T09:25:54;9.90;99.90
8231;DHT22;4156;50.908;6.974;2022-09-29T09:28:43;9.90;99.90
8231;DHT22;4156;50.908;6.974;2022-09-29T09:31:20;9.90;99.90
8231;DHT22;4156;50.908;6.974;2022-09-29T09:34:04;10.00;99.90
8231;DHT22;4156;50.908;6.974;2022-09-29T09:36:38;10.00;99.90
8231;DHT22;4156;50.908;6.974;2022-09-29T09:39:17;10.50;99.90
8231;DHT22;4156;50.908;6.974;2022-09-29T09:41:47;10.10;99.90
8231;DHT22;4156;50.908;6.974;2022-09-29T09:44:24;10.20;99.90
8231;DHT22;4156;50.908;6.974;2022-09-29T09:52:03;10.20;99.90
8231;DHT22;4156;50.908;6.974;2022-09-29T09:54:34;10.20;99.90
8231;DHT22;4156;50.908;6.974;2022-09-29T10:02:25;10.30;99.90
8231;DHT22;4156;50.908;6.974;2022-09-29T10:04:52;10.30;99.90
8231;DHT22;4156;50.908;6.974;2022-09-29T10:07:20;10.40;99.90
8231;DHT22;4156;50.908;6.974;2022-09-29T10:09:46;10.40;99.90
8231;DHT22;4156;50.908;6.974;2022-09-29T10:12:16;10.40;99.90
8231;DHT22;4156;50.908;6.974;2022-09-29T10:15:37;10.40;99.90
8231;DHT22;4156;50.908;6.974;2022-09-29T10:17:41;10.50;99.90
8231;DHT22;4156;50.908;6.974;2022-09-29T10:20:08;10.50;99.90
8231;DHT22;4156;50.908;6.974;2022-09-29T10:22:35;10.50;99.90
8231;DHT22;4156;50.908;6.974;2022-09-29T10:27:53;10.60;99.90
8231;DHT22;4156;50.908;6.974;2022-09-29T10:30:33;10.60;99.90
8231;DHT22;4156;50.908;6.974;2022-09-29T10:33:01;10.60;99.90
8231;DHT22;4156;50.908;6.974;2022-09-29T10:35:34;10.70;99.90
8231;DHT22;4156;50.908;6.974;2022-09-29T10:38:22;10.70;99.90
8231;DHT22;4156;50.908;6.974;2022-09-29T10:40:56;10.70;99.90
8231;DHT22;4156;50.908;6.974;2022-09-29T10:43:34;10.80;99.90
8231;DHT22;4156;50.908;6.974;2022-09-29T10:46:01;10.80;99.90
8231;DHT22;4156;50.908;6.974;2022-09-29T10:48:27;10.80;99.90
8231;DHT22;4156;50.908;6.974;2022-09-29T10:50:59;10.90;99.90
8231;DHT22;4156;50.908;6.974;2022-09-29T10:56:16;10.90;99.90
8231;DHT22;4156;50.908;6.974;2022-09-29T10:58:44;11.00;99.90
8231;DHT22;4156;50.908;6.974;2022-09-29T11:01:17;11.00;99.90
8231;DHT22;4156;50.908;6.974;2022-09-29T11:04:05;11.00;99.90
8231;DHT22;4156;50.908;6.974;2022-09-29T11:06:33;11.00;99.90
8231;DHT22;4156;50.908;6.974;2022-09-29T11:09:02;11.00;99.90
8231;DHT22;4156;50.908;6.974;2022-09-29T11:11:30;11.00;99.90
8231;DHT22;4156;50.908;6.974;2022-09-29T11:13:57;11.00;99.90
8231;DHT22;4156;50.908;6.974;2022-09-29T11:18:53;11.10;99.90
8231;DHT22;4156;50.908;6.974;2022-09-29T11:21:41;11.10;99.90
8231;DHT22;4156;50.908;6.974;2022-09-29T11:35:06;11.20;99.90
8231;DHT22;4156;50.908;6.974;2022-09-29T11:47:04;11.30;99.90
8231;DHT22;4156;50.908;6.974;2022-09-29T11:49:37;11.30;99.90
8231;DHT22;4156;50.908;6.974;2022-09-29T11:52:28;11.30;99.90
8231;DHT22;4156;50.908;6.974;2022-09-29T11:55:18;11.30;99.90
8231;DHT22;4156;50.908;6.974;2022-09-29T12:01:12;11.40;99.90
8231;DHT22;4156;50.908;6.974;2022-09-29T12:04:02;11.40;99.90
8231;DHT22;4156;50.908;6.974;2022-09-29T12:09:53;11.50;99.90
8231;DHT22;4156;50.908;6.974;2022-09-29T12:17:45;11.50;99.90
8231;DHT22;4156;50.908;6.974;2022-09-29T12:22:45;11.60;99.90
8231;DHT22;4156;50.908;6.974;2022-09-29T12:25:16;11.60;99.90
8231;DHT22;4156;50.908;6.974;2022-09-29T12:27:45;11.60;99.90
8231;DHT22;4156;50.908;6.974;2022-09-29T12:30:29;11.60;99.90
8231;DHT22;4156;50.908;6.974;2022-09-29T12:36:17;11.70;99.90
8231;DHT22;4156;50.908;6.974;2022-09-29T12:41:45;11.70;99.90
8231;DHT22;4156;50.908;6.974;2022-09-29T12:44:36;11.80;99.90
8231;DHT22;4156;50.908;6.974;2022-09-29T12:47:36;11.80;99.90
8231;DHT22;4156;50.908;6.974;2022-09-29T12:50:16;11.80;99.90
8231;DHT22;4156;50.908;6.974;2022-09-29T12:53:15;11.80;99.90
8231;DHT22;4156;50.908;6.974;2022-09-29T13:01:32;11.90;99.90
8231;DHT22;4156;50.908;6.974;2022-09-29T13:04:41;11.90;99.90
8231;DHT22;4156;50.908;6.974;2022-09-29T13:23:51;12.00;99.90
8231;DHT22;4156;50.908;6.974;2022-09-29T13:29:16;12.00;99.90
8231;DHT22;4156;50.908;6.974;2022-09-29T13:31:45;12.10;99.90
8231;DHT22;4156;50.908;6.974;2022-09-29T13:37:11;12.10;99.90
8231;DHT22;4156;50.908;6.974;2022-09-29T13:39:43;12.10;99.90
8231;DHT22;4156;50.908;6.974;2022-09-29T13:42:48;12.10;99.90
8231;DHT22;4156;50.908;6.974;2022-09-29T13:47:51;12.20;99.90
8231;DHT22;4156;50.908;6.974;2022-09-29T13:55:52;12.20;99.90
8231;DHT22;4156;50.908;6.974;2022-09-29T13:58:24;12.20;99.90
8231;DHT22;4156;50.908;6.974;2022-09-29T14:00:51;12.20;99.90
8231;DHT22;4156;50.908;6.974;2022-09-29T14:05:56;12.30;99.90
8231;DHT22;4156;50.908;6.974;2022-09-29T14:08:28;12.30;99.90
8231;DHT22;4156;50.908;6.974;2022-09-29T14:11:19;12.30;99.90
8231;DHT22;4156;50.908;6.974;2022-09-29T14:14:40;12.40;99.90
8231;DHT22;4156;50.908;6.974;2022-09-29T14:17:20;12.40;99.90
8231;DHT22;4156;50.908;6.974;2022-09-29T14:19:53;12.40;99.90
8231;DHT22;4156;50.908;6.974;2022-09-29T14:27:46;12.40;99.90
8231;DHT22;4156;50.908;6.974;2022-09-29T14:38:17;12.50;99.90
8231;DHT22;4156;50.908;6.974;2022-09-29T14:41:25;12.50;99.90
8231;DHT22;4156;50.908;6.974;2022-09-29T14:44:00;12.50;99.90
8231;DHT22;4156;50.908;6.974;2022-09-29T14:47:00;12.50;99.90
8231;DHT22;4156;50.908;6.974;2022-09-29T14:50:13;12.60;99.90
8231;DHT22;4156;50.908;6.974;2022-09-29T14:53:22;12.60;99.90
8231;DHT22;4156;50.908;6.974;2022-09-29T14:55:55;12.60;99.90
8231;DHT22;4156;50.908;6.974;2022-09-29T15:03:32;12.60;99.90
8231;DHT22;4156;50.908;6.974;2022-09-29T15:08:45;12.70;99.90
8231;DHT22;4156;50.908;6.974;2022-09-29T15:11:40;12.70;99.90
8231;DHT22;4156;50.908;6.974;2022-09-29T15:17:00;12.70;99.90
8231;DHT22;4156;50.908;6.974;2022-09-29T15:19:44;12.70;99.90
8231;DHT22;4156;50.908;6.974;2022-09-29T15:25:17;12.70;99.90
8231;DHT22;4156;50.908;6.974;2022-09-29T15:27:49;12.70;99.90
8231;DHT22;4156;50.908;6.974;2022-09-29T15:30:18;12.70;99.90
8231;DHT22;4156;50.908;6.974;2022-09-29T15:32:45;12.80;99.90
8231;DHT22;4156;50.908;6.974;2022-09-29T15:35:15;12.90;99.90
8231;DHT22;4156;50.908;6.974;2022-09-29T15:38:15;12.90;99.90
8231;DHT22;4156;50.908;6.974;2022-09-29T15:40:41;12.80;99.90
8231;DHT22;4156;50.908;6.974;2022-09-29T15:43:22;12.90;99.90
8231;DHT22;4156;50.908;6.974;2022-09-29T15:45:56;12.90;99.90
8231;DHT22;4156;50.908;6.974;2022-09-29T15:48:23;12.90;99.90
8231;DHT22;4156;50.908;6.974;2022-09-29T15:50:50;12.90;99.90
8231;DHT22;4156;50.908;6.974;2022-09-29T15:53:15;12.80;99.90
8231;DHT22;4156;50.908;6.974;2022-09-29T15:55:41;12.90;99.90
8231;DHT22;4156;50.908;6.974;2022-09-29T16:01:00;12.90;99.90
8231;DHT22;4156;50.908;6.974;2022-09-29T16:03:57;12.90;99.90
8231;DHT22;4156;50.908;6.974;2022-09-29T16:06:33;12.90;99.90
8231;DHT22;4156;50.908;6.974;2022-09-29T16:09:05;12.90;99.90
8231;DHT22;4156;50.908;6.974;2022-09-29T16:11:38;12.90;99.90
8231;DHT22;4156;50.908;6.974;2022-09-29T16:14:09;12.90;99.90
8231;DHT22;4156;50.908;6.974;2022-09-29T16:16:42;12.90;99.90
8231;DHT22;4156;50.908;6.974;2022-09-29T16:21:43;12.90;99.90
8231;DHT22;4156;50.908;6.974;2022-09-29T16:24:17;12.90;99.90
8231;DHT22;4156;50.908;6.974;2022-09-29T16:26:46;12.90;99.90
8231;DHT22;4156;50.908;6.974;2022-09-29T16:31:42;12.90;99.90
8231;DHT22;4156;50.908;6.974;2022-09-29T16:34:25;13.00;99.90
8231;DHT22;4156;50.908;6.974;2022-09-29T16:36:56;12.90;99.90
8231;DHT22;4156;50.908;6.974;2022-09-29T16:39:25;13.00;99.90
8231;DHT22;4156;50.908;6.974;2022-09-29T16:41:53;13.00;99.90
8231;DHT22;4156;50.908;6.974;2022-09-29T16:44:24;13.00;99.90
8231;DHT22;4156;50.908;6.974;2022-09-29T16:46:52;13.00;99.90
8231;DHT22;4156;50.908;6.974;2022-09-29T16:49:24;13.00;99.90
8231;DHT22;4156;50.908;6.974;2022-09-29T16:51:51;13.00;99.90
8231;DHT22;4156;50.908;6.974;2022-09-29T16:54:26;13.00;99.90
8231;DHT22;4156;50.908;6.974;2022-09-29T16:57:15;13.00;99.90
8231;DHT22;4156;50.908;6.974;2022-09-29T16:59:43;13.00;99.90
8231;DHT22;4156;50.908;6.974;2022-09-29T17:02:09;13.00;99.90
8231;DHT22;4156;50.908;6.974;2022-09-29T17:04:35;13.00;99.90
8231;DHT22;4156;50.908;6.974;2022-09-29T17:07:00;13.00;99.90
8231;DHT22;4156;50.908;6.974;2022-09-29T17:09:27;13.00;99.90
8231;DHT22;4156;50.908;6.974;2022-09-29T17:11:53;13.00;99.90
8231;DHT22;4156;50.908;6.974;2022-09-29T17:14:19;13.00;99.90
8231;DHT22;4156;50.908;6.974;2022-09-29T17:16:46;13.00;99.90
8231;DHT22;4156;50.908;6.974;2022-09-29T17:19:13;13.50;99.90
8231;DHT22;4156;50.908;6.974;2022-09-29T17:21:39;13.10;99.90
8231;DHT22;4156;50.908;6.974;2022-09-29T17:24:05;13.10;99.90
8231;DHT22;4156;50.908;6.974;2022-09-29T17:26:44;13.10;99.90
8231;DHT22;4156;50.908;6.974;2022-09-29T17:29:29;13.10;99.90
8231;DHT22;4156;50.908;6.974;2022-09-29T17:31:54;13.10;99.90
8231;DHT22;4156;50.908;6.974;2022-09-29T17:34:20;13.10;99.90
8231;DHT22;4156;50.908;6.974;2022-09-29T17:36:53;13.10;99.90
8231;DHT22;4156;50.908;6.974;2022-09-29T17:39:19;13.10;99.90
8231;DHT22;4156;50.908;6.974;2022-09-29T17:41:46;13.10;99.90
8231;DHT22;4156;50.908;6.974;2022-09-29T17:44:13;13.10;99.90
8231;DHT22;4156;50.908;6.974;2022-09-29T17:46:39;13.10;99.90
8231;DHT22;4156;50.908;6.974;2022-09-29T17:49:16;13.10;99.90
8231;DHT22;4156;50.908;6.974;2022-09-29T17:51:42;13.10;99.90
8231;DHT22;4156;50.908;6.974;2022-09-29T17:54:07;13.10;99.90
8231;DHT22;4156;50.908;6.974;2022-09-29T17:56:38;13.10;99.90
8231;DHT22;4156;50.908;6.974;2022-09-29T17:59:04;13.00;99.90
8231;DHT22;4156;50.908;6.974;2022-09-29T18:01:33;13.00;99.90
8231;DHT22;4156;50.908;6.974;2022-09-29T18:03:59;13.00;99.90
8231;DHT22;4156;50.908;6.974;2022-09-29T18:06:25;13.00;99.90
8231;DHT22;4156;50.908;6.974;2022-09-29T18:08:52;13.00;99.90
8231;DHT22;4156;50.908;6.974;2022-09-29T18:11:19;13.00;99.90
8231;DHT22;4156;50.908;6.974;2022-09-29T18:13:46;13.00;99.90
8231;DHT22;4156;50.908;6.974;2022-09-29T18:16:19;13.00;99.90
8231;DHT22;4156;50.908;6.974;2022-09-29T18:18:45;13.00;99.90
8231;DHT22;4156;50.908;6.974;2022-09-29T18:21:12;12.90;99.90
8231;DHT22;4156;50.908;6.974;2022-09-29T18:23:37;12.90;99.90
8231;DHT22;4156;50.908;6.974;2022-09-29T18:26:05;13.00;99.90
8231;DHT22;4156;50.908;6.974;2022-09-29T18:28:31;13.00;99.90
8231;DHT22;4156;50.908;6.974;2022-09-29T18:31:03;12.90;99.90
8231;DHT22;4156;50.908;6.974;2022-09-29T18:33:32;12.90;99.90
8231;DHT22;4156;50.908;6.974;2022-09-29T18:35:58;12.90;99.90
8231;DHT22;4156;50.908;6.974;2022-09-29T18:38:25;12.90;99.90
8231;DHT22;4156;50.908;6.974;2022-09-29T18:40:52;12.90;99.90
8231;DHT22;4156;50.908;6.974;2022-09-29T18:43:24;12.90;99.90
8231;DHT22;4156;50.908;6.974;2022-09-29T18:45:53;12.80;99.90
8231;DHT22;4156;50.908;6.974;2022-09-29T18:48:19;12.80;99.90
8231;DHT22;4156;50.908;6.974;2022-09-29T18:50:47;12.80;99.90
8231;DHT22;4156;50.908;6.974;2022-09-29T18:53:16;12.80;99.90
8231;DHT22;4156;50.908;6.974;2022-09-29T18:55:42;12.80;99.90
8231;DHT22;4156;50.908;6.974;2022-09-29T18:58:11;12.80;99.90
8231;DHT22;4156;50.908;6.974;2022-09-29T19:00:39;12.80;99.90
8231;DHT22;4156;50.908;6.974;2022-09-29T19:03:05;12.70;99.90
8231;DHT22;4156;50.908;6.974;2022-09-29T19:05:32;12.70;99.90
8231;DHT22;4156;50.908;6.974;2022-09-29T19:08:01;12.70;99.90
8231;DHT22;4156;50.908;6.974;2022-09-29T19:10:28;12.70;99.90
8231;DHT22;4156;50.908;6.974;2022-09-29T19:12:57;12.70;99.90
8231;DHT22;4156;50.908;6.974;2022-09-29T19:15:26;12.70;99.90
8231;DHT22;4156;50.908;6.974;2022-09-29T19:17:52;12.70;99.90
8231;DHT22;4156;50.908;6.974;2022-09-29T19:20:23;12.60;99.90
8231;DHT22;4156;50.908;6.974;2022-09-29T19:22:49;12.60;99.90
8231;DHT22;4156;50.908;6.974;2022-09-29T19:25:18;12.60;99.90
8231;DHT22;4156;50.908;6.974;2022-09-29T19:27:44;12.60;99.90
8231;DHT22;4156;50.908;6.974;2022-09-29T19:30:13;12.60;99.90
8231;DHT22;4156;50.908;6.974;2022-09-29T19:32:39;12.60;99.90
8231;DHT22;4156;50.908;6.974;2022-09-29T19:35:06;12.60;99.90
8231;DHT22;4156;50.908;6.974;2022-09-29T19:37:32;12.60;99.90
8231;DHT22;4156;50.908;6.974;2022-09-29T19:39:58;12.60;99.90